createdAt,value
2022-09-24T00:01:40.820Z,13.32
2022-09-24T00:04:12.084Z,13.33
2022-09-24T00:06:48.584Z,13.24
2022-09-24T00:09:19.469Z,13.19
2022-09-24T00:11:46.330Z,13.15
2022-09-24T00:14:13.584Z,13.18
2022-09-24T00:16:41.499Z,13.16
2022-09-24T00:19:10.220Z,13.11
2022-09-24T00:21:39.566Z,13.08
2022-09-24T00:24:33.435Z,13.07
2022-09-24T00:27:00.956Z,13.07
2022-09-24T00:29:27.839Z,13.04
2022-09-24T00:31:54.830Z,13.00
2022-09-24T00:34:22.081Z,12.93
2022-09-24T00:36:48.866Z,12.94
2022-09-24T00:39:16.601Z,12.88
2022-09-24T00:41:47.821Z,12.95
2022-09-24T00:44:45.342Z,12.98
2022-09-24T00:47:32.743Z,12.96
2022-09-24T00:50:37.687Z,12.97
2022-09-24T00:53:12.198Z,12.96
2022-09-24T00:55:43.089Z,12.95
2022-09-24T00:58:11.099Z,13.02
2022-09-24T01:00:40.977Z,13.03
2022-09-24T01:03:13.245Z,13.02
2022-09-24T01:05:40.018Z,13.08
2022-09-24T01:08:11.623Z,13.09
2022-09-24T01:10:54.774Z,13.11
2022-09-24T01:14:13.692Z,13.14
2022-09-24T01:17:04.312Z,13.15
2022-09-24T01:20:26.933Z,13.10
2022-09-24T01:23:47.775Z,13.09
2022-09-24T01:26:55.584Z,13.06
2022-09-24T01:30:06.314Z,12.99
2022-09-24T01:32:49.554Z,12.95
2022-09-24T01:35:22.824Z,12.96
2022-09-24T01:38:06.668Z,12.88
2022-09-24T01:40:34.212Z,12.77
2022-09-24T01:43:04.429Z,12.72
2022-09-24T01:45:33.347Z,12.70
2022-09-24T01:48:01.298Z,12.58
2022-09-24T01:50:34.431Z,12.53
2022-09-24T01:53:30.955Z,12.48
2022-09-24T01:56:15.944Z,12.49
2022-09-24T01:59:04.778Z,12.48
2022-09-24T02:01:44.149Z,12.52
2022-09-24T02:04:17.177Z,12.55
2022-09-24T02:06:56.756Z,12.56
2022-09-24T02:09:42.455Z,12.62
2022-09-24T02:12:33.451Z,12.63
2022-09-24T02:15:17.366Z,12.64
2022-09-24T02:17:48.581Z,12.67
2022-09-24T02:20:21.279Z,12.63
2022-09-24T02:22:51.540Z,12.59
2022-09-24T02:25:25.758Z,12.57
2022-09-24T02:27:52.528Z,12.54
2022-09-24T02:30:19.365Z,12.50
2022-09-24T02:32:47.123Z,12.48
2022-09-24T02:35:13.918Z,12.26
2022-09-24T02:37:43.466Z,12.23
2022-09-24T02:40:13.546Z,12.25
2022-09-24T02:42:42.275Z,12.20
2022-09-24T02:45:10.554Z,12.30
2022-09-24T02:47:37.628Z,12.28
2022-09-24T02:50:05.152Z,12.23
2022-09-24T02:52:31.922Z,12.27
2022-09-24T02:54:58.712Z,12.31
2022-09-24T02:57:25.541Z,12.33
2022-09-24T02:59:52.307Z,12.30
2022-09-24T03:02:19.089Z,12.39
2022-09-24T03:04:47.152Z,12.47
2022-09-24T03:07:14.684Z,12.48
2022-09-24T03:09:41.466Z,12.52
2022-09-24T03:12:08.295Z,12.35
2022-09-24T03:14:35.102Z,12.40
2022-09-24T03:17:01.891Z,12.42
2022-09-24T03:19:29.284Z,12.46
2022-09-24T03:21:56.072Z,12.48
2022-09-24T03:24:22.842Z,12.50
2022-09-24T03:26:49.603Z,12.53
2022-09-24T03:29:16.345Z,12.31
2022-09-24T03:31:43.115Z,12.37
2022-09-24T03:34:10.093Z,12.39
2022-09-24T03:36:36.875Z,12.32
2022-09-24T03:39:03.814Z,12.33
2022-09-24T03:41:30.643Z,12.27
2022-09-24T03:43:57.438Z,12.31
2022-09-24T03:46:30.193Z,12.32
2022-09-24T03:48:59.176Z,12.37
2022-09-24T03:51:25.990Z,12.40
2022-09-24T03:53:52.771Z,12.34
2022-09-24T03:56:19.557Z,12.30
2022-09-24T03:58:48.002Z,12.44
2022-09-24T04:01:20.432Z,12.50
2022-09-24T04:03:48.873Z,12.47
2022-09-24T04:06:16.054Z,12.61
2022-09-24T04:08:42.845Z,12.62
2022-09-24T04:11:09.690Z,12.64
2022-09-24T04:13:36.446Z,12.57
2022-09-24T04:16:04.356Z,12.56
2022-09-24T04:18:34.634Z,12.55
2022-09-24T04:21:03.882Z,12.27
2022-09-24T04:23:31.328Z,12.40
2022-09-24T04:26:02.130Z,12.39
2022-09-24T04:28:30.283Z,12.51
2022-09-24T04:30:57.688Z,12.52
2022-09-24T04:33:24.714Z,12.56
2022-09-24T04:35:51.464Z,12.60
2022-09-24T04:38:19.555Z,12.63
2022-09-24T04:40:46.771Z,12.65
2022-09-24T04:43:13.692Z,12.40
2022-09-24T04:45:44.948Z,12.39
2022-09-24T04:48:12.526Z,12.48
2022-09-24T04:50:43.423Z,12.49
2022-09-24T04:53:12.742Z,12.49
2022-09-24T04:55:39.633Z,12.51
2022-09-24T04:58:06.515Z,12.49
2022-09-24T05:00:33.635Z,12.53
2022-09-24T05:03:04.964Z,12.55
2022-09-24T05:05:33.563Z,12.53
2022-09-24T05:08:01.409Z,12.50
2022-09-24T05:10:31.449Z,12.44
2022-09-24T05:12:58.386Z,12.45
2022-09-24T05:15:25.177Z,12.47
2022-09-24T05:17:51.908Z,12.52
2022-09-24T05:20:18.677Z,12.49
2022-09-24T05:22:49.195Z,12.55
2022-09-24T05:25:19.260Z,12.55
2022-09-24T05:27:49.343Z,12.56
2022-09-24T05:30:17.385Z,12.57
2022-09-24T05:32:44.212Z,12.65
2022-09-24T05:35:11.228Z,12.69
2022-09-24T05:37:38.289Z,12.68
2022-09-24T05:40:25.688Z,12.80
2022-09-24T05:42:59.713Z,12.93
2022-09-24T05:45:26.487Z,13.00
2022-09-24T05:47:53.310Z,13.03
2022-09-24T05:50:20.046Z,13.03
2022-09-24T05:52:46.841Z,12.71
2022-09-24T05:55:13.661Z,12.71
2022-09-24T05:57:40.471Z,12.80
2022-09-24T06:00:07.792Z,12.93
2022-09-24T06:02:34.630Z,13.22
2022-09-24T06:05:01.485Z,13.33
2022-09-24T06:07:28.237Z,13.40
2022-09-24T06:09:55.328Z,13.42
2022-09-24T06:12:23.498Z,13.60
2022-09-24T06:14:50.367Z,13.88
2022-09-24T06:17:17.125Z,14.11
2022-09-24T06:19:43.911Z,14.16
2022-09-24T06:22:10.826Z,14.30
2022-09-24T06:24:37.567Z,14.37
2022-09-24T06:27:04.478Z,14.50
2022-09-24T06:29:31.839Z,14.60
2022-09-24T06:31:59.812Z,14.84
2022-09-24T06:34:26.581Z,15.01
2022-09-24T06:36:57.072Z,15.18
2022-09-24T06:39:25.123Z,15.24
2022-09-24T06:41:52.974Z,15.34
2022-09-24T06:44:20.199Z,15.36
2022-09-24T06:46:47.178Z,15.43
2022-09-24T06:49:13.991Z,15.41
2022-09-24T06:51:40.803Z,15.42
2022-09-24T06:54:07.574Z,15.48
2022-09-24T06:56:34.320Z,15.57
2022-09-24T06:59:01.059Z,15.74
2022-09-24T07:01:28.020Z,15.89
2022-09-24T07:03:54.866Z,15.96
2022-09-24T07:06:21.627Z,15.95
2022-09-24T07:08:51.982Z,15.95
2022-09-24T07:11:18.780Z,15.89
2022-09-24T07:13:45.660Z,15.96
2022-09-24T07:16:12.481Z,16.00
2022-09-24T07:18:39.282Z,15.94
2022-09-24T07:21:06.209Z,15.87
2022-09-24T07:23:32.966Z,15.80
2022-09-24T07:25:59.707Z,15.77
2022-09-24T07:28:26.675Z,15.73
2022-09-24T07:31:01.133Z,15.68
2022-09-24T07:33:28.192Z,15.58
2022-09-24T07:35:54.966Z,15.52
2022-09-24T07:38:22.363Z,15.50
2022-09-24T07:40:49.668Z,15.55
2022-09-24T07:43:16.516Z,15.57
2022-09-24T07:45:43.428Z,15.47
2022-09-24T07:48:11.098Z,15.52
2022-09-24T07:50:42.681Z,15.60
2022-09-24T07:53:13.968Z,15.58
2022-09-24T07:55:41.547Z,15.58
2022-09-24T07:58:13.411Z,15.54
2022-09-24T08:00:40.478Z,15.70
2022-09-24T08:03:07.519Z,15.70
2022-09-24T08:05:34.606Z,15.62
2022-09-24T08:08:01.682Z,15.30
2022-09-24T08:10:29.111Z,15.72
2022-09-24T08:12:59.053Z,15.09
2022-09-24T08:15:25.895Z,15.64
2022-09-24T08:17:53.018Z,15.83
2022-09-24T08:20:21.424Z,16.07
2022-09-24T08:22:48.374Z,16.26
2022-09-24T08:25:15.220Z,16.28
2022-09-24T08:27:42.004Z,15.87
2022-09-24T08:30:09.746Z,15.97
2022-09-24T08:32:36.527Z,15.79
2022-09-24T08:35:03.502Z,15.91
2022-09-24T08:37:30.406Z,16.10
2022-09-24T08:39:57.495Z,16.12
2022-09-24T08:42:50.599Z,16.01
2022-09-24T08:45:36.792Z,16.14
2022-09-24T08:48:22.000Z,16.39
2022-09-24T08:50:58.093Z,16.60
2022-09-24T08:53:31.668Z,16.74
2022-09-24T08:56:02.139Z,16.97
2022-09-24T08:58:57.199Z,17.15
2022-09-24T09:02:17.941Z,17.19
2022-09-24T09:05:49.270Z,17.43
2022-09-24T09:09:09.987Z,17.34
2022-09-24T09:11:40.170Z,17.67
2022-09-24T09:14:21.916Z,17.42
2022-09-24T09:17:06.735Z,17.69
2022-09-24T09:19:34.995Z,18.01
2022-09-24T09:22:23.647Z,18.27
2022-09-24T09:25:03.701Z,18.30
2022-09-24T09:27:31.374Z,18.07
2022-09-24T09:30:03.637Z,17.99
2022-09-24T09:33:15.472Z,18.18
2022-09-24T09:35:49.276Z,18.35
2022-09-24T09:38:32.391Z,18.06
2022-09-24T09:41:34.979Z,18.28
2022-09-24T09:44:17.689Z,18.56
2022-09-24T09:46:57.689Z,18.51
2022-09-24T09:49:32.523Z,18.64
2022-09-24T09:52:04.824Z,19.02
2022-09-24T09:54:38.943Z,18.96
2022-09-24T09:57:18.129Z,19.04
2022-09-24T09:59:50.972Z,19.15
2022-09-24T10:02:31.552Z,19.14
2022-09-24T10:05:01.630Z,19.35
2022-09-24T10:07:31.502Z,19.51
2022-09-24T10:10:04.005Z,19.56
2022-09-24T10:12:30.981Z,19.58
2022-09-24T10:15:27.033Z,19.42
2022-09-24T10:17:55.200Z,19.58
2022-09-24T10:20:29.435Z,19.66
2022-09-24T10:23:21.539Z,19.68
2022-09-24T10:26:00.064Z,19.86
2022-09-24T10:28:46.419Z,20.08
2022-09-24T10:31:29.406Z,20.15
2022-09-24T10:33:59.127Z,20.30
2022-09-24T10:36:32.595Z,20.46
2022-09-24T10:39:16.157Z,19.78
2022-09-24T10:41:52.169Z,19.39
2022-09-24T10:44:21.190Z,19.61
2022-09-24T10:47:45.989Z,19.69
2022-09-24T10:50:29.747Z,19.57
2022-09-24T10:53:13.830Z,19.54
2022-09-24T10:56:19.847Z,19.74
2022-09-24T10:59:24.082Z,19.84
2022-09-24T11:02:02.669Z,20.00
2022-09-24T11:04:46.816Z,19.90
2022-09-24T11:07:52.828Z,19.99
2022-09-24T11:10:40.650Z,20.02
2022-09-24T11:13:56.784Z,20.05
2022-09-24T11:16:56.296Z,20.23
2022-09-24T11:19:34.571Z,20.20
2022-09-24T11:22:15.881Z,20.18
2022-09-24T11:25:08.796Z,20.01
2022-09-24T11:27:54.377Z,20.01
2022-09-24T11:30:25.006Z,20.18
2022-09-24T11:33:20.698Z,20.21
2022-09-24T11:36:07.123Z,20.19
2022-09-24T11:39:07.064Z,20.31
2022-09-24T11:41:57.524Z,20.26
2022-09-24T11:45:11.133Z,20.08
2022-09-24T11:48:02.036Z,20.16
2022-09-24T11:51:02.731Z,20.05
2022-09-24T11:53:59.824Z,20.15
2022-09-24T11:56:41.282Z,20.42
2022-09-24T11:59:30.984Z,20.52
2022-09-24T12:02:19.184Z,20.35
2022-09-24T12:05:35.971Z,19.82
2022-09-24T12:08:21.621Z,19.90
2022-09-24T12:11:30.871Z,19.97
2022-09-24T12:14:15.124Z,19.86
2022-09-24T12:16:44.376Z,19.82
2022-09-24T12:19:32.934Z,19.87
2022-09-24T12:22:04.048Z,19.76
2022-09-24T12:24:39.064Z,19.75
2022-09-24T12:27:17.525Z,19.69
2022-09-24T12:30:11.723Z,19.67
2022-09-24T12:33:06.813Z,19.54
2022-09-24T12:36:01.956Z,19.59
2022-09-24T12:38:40.693Z,19.58
2022-09-24T12:41:23.449Z,19.80
2022-09-24T12:44:09.942Z,19.56
2022-09-24T12:46:57.519Z,19.37
2022-09-24T12:49:27.268Z,19.48
2022-09-24T12:51:56.813Z,19.49
2022-09-24T12:54:36.534Z,19.46
2022-09-24T12:57:24.308Z,19.40
2022-09-24T12:59:54.955Z,19.46
2022-09-24T13:02:29.920Z,19.55
2022-09-24T13:05:02.814Z,19.58
2022-09-24T13:07:35.449Z,19.52
2022-09-24T13:10:17.416Z,19.56
2022-09-24T13:12:46.332Z,19.65
2022-09-24T13:15:32.517Z,19.61
2022-09-24T13:18:11.067Z,19.73
2022-09-24T13:20:49.288Z,19.62
2022-09-24T13:23:20.367Z,19.61
2022-09-24T13:25:59.387Z,19.56
2022-09-24T13:28:55.278Z,19.44
2022-09-24T13:31:22.021Z,19.57
2022-09-24T13:33:57.375Z,19.71
2022-09-24T13:36:33.220Z,19.79
2022-09-24T13:39:45.355Z,20.02
2022-09-24T13:42:35.208Z,20.26
2022-09-24T13:45:09.596Z,20.10
2022-09-24T13:47:55.107Z,20.03
2022-09-24T13:50:36.649Z,20.14
2022-09-24T13:53:40.494Z,20.21
2022-09-24T13:56:17.720Z,20.27
2022-09-24T13:58:44.572Z,20.27
2022-09-24T14:01:29.943Z,20.36
2022-09-24T14:04:05.335Z,20.30
2022-09-24T14:06:39.831Z,20.47
2022-09-24T14:09:27.734Z,20.35
2022-09-24T14:11:58.539Z,20.34
2022-09-24T14:14:29.074Z,20.05
2022-09-24T14:17:08.052Z,20.07
2022-09-24T14:19:35.994Z,20.21
2022-09-24T14:22:05.263Z,20.32
2022-09-24T14:24:41.051Z,20.39
2022-09-24T14:27:13.103Z,20.49
2022-09-24T14:30:01.200Z,20.46
2022-09-24T14:32:39.271Z,20.37
2022-09-24T14:35:20.047Z,20.21
2022-09-24T14:38:13.998Z,20.17
2022-09-24T14:41:15.870Z,20.30
2022-09-24T14:43:45.542Z,20.49
2022-09-24T14:46:28.790Z,20.72
2022-09-24T14:49:22.916Z,20.74
2022-09-24T14:52:01.325Z,20.57
2022-09-24T14:54:41.357Z,20.57
2022-09-24T14:57:17.248Z,20.51
2022-09-24T14:59:45.294Z,20.44
2022-09-24T15:02:25.219Z,20.41
2022-09-24T15:04:55.918Z,20.34
2022-09-24T15:07:26.177Z,20.29
2022-09-24T15:09:56.548Z,20.07
2022-09-24T15:12:32.558Z,19.83
2022-09-24T15:15:29.291Z,19.74
2022-09-24T15:17:56.052Z,19.57
2022-09-24T15:20:23.078Z,19.55
2022-09-24T15:22:49.821Z,19.51
2022-09-24T15:25:16.598Z,19.45
2022-09-24T15:27:43.486Z,19.42
2022-09-24T15:30:20.891Z,19.27
2022-09-24T15:32:51.603Z,19.33
2022-09-24T15:35:18.422Z,19.41
2022-09-24T15:37:45.452Z,19.43
2022-09-24T15:40:23.479Z,19.38
2022-09-24T15:42:50.993Z,19.42
2022-09-24T15:45:21.361Z,19.36
2022-09-24T15:47:49.819Z,19.31
2022-09-24T15:50:17.469Z,19.34
2022-09-24T15:52:57.939Z,19.20
2022-09-24T15:55:25.078Z,19.21
2022-09-24T15:57:51.857Z,19.26
2022-09-24T16:00:22.385Z,19.01
2022-09-24T16:02:56.065Z,19.02
2022-09-24T16:05:23.997Z,19.03
2022-09-24T16:07:50.810Z,18.98
2022-09-24T16:10:17.860Z,18.92
2022-09-24T16:12:44.666Z,18.88
2022-09-24T16:15:16.013Z,19.00
2022-09-24T16:17:43.523Z,18.99
2022-09-24T16:20:10.533Z,18.93
2022-09-24T16:22:37.379Z,18.91
2022-09-24T16:25:06.054Z,18.90
2022-09-24T16:27:35.152Z,18.92
2022-09-24T16:30:02.517Z,18.92
2022-09-24T16:32:29.276Z,18.86
2022-09-24T16:34:56.870Z,18.82
2022-09-24T16:37:24.294Z,18.77
2022-09-24T16:39:51.411Z,18.71
2022-09-24T16:42:18.214Z,18.73
2022-09-24T16:44:44.969Z,18.72
2022-09-24T16:47:11.986Z,18.62
2022-09-24T16:49:38.739Z,18.60
2022-09-24T16:52:06.147Z,18.62
2022-09-24T16:54:32.914Z,18.60
2022-09-24T16:57:01.698Z,18.51
2022-09-24T16:59:28.447Z,18.41
2022-09-24T17:01:55.264Z,18.35
2022-09-24T17:04:22.699Z,18.31
2022-09-24T17:06:49.595Z,18.23
2022-09-24T17:09:35.136Z,18.24
2022-09-24T17:12:02.077Z,18.12
2022-09-24T17:14:28.888Z,18.12
2022-09-24T17:16:55.631Z,18.05
2022-09-24T17:19:22.522Z,17.96
2022-09-24T17:21:52.139Z,17.92
2022-09-24T17:24:22.080Z,17.87
2022-09-24T17:26:49.464Z,17.92
2022-09-24T17:29:20.407Z,17.75
2022-09-24T17:31:47.155Z,17.72
2022-09-24T17:34:15.120Z,17.72
2022-09-24T17:36:42.707Z,17.65
2022-09-24T17:39:12.918Z,17.63
2022-09-24T17:41:39.685Z,17.69
2022-09-24T17:44:06.700Z,17.73
2022-09-24T17:46:35.729Z,17.68
2022-09-24T17:49:03.050Z,17.59
2022-09-24T17:51:32.876Z,17.54
2022-09-24T17:54:04.399Z,17.53
2022-09-24T17:56:33.473Z,17.44
2022-09-24T17:59:00.834Z,17.46
2022-09-24T18:01:33.667Z,17.35
2022-09-24T18:04:00.680Z,17.32
2022-09-24T18:06:32.962Z,17.38
2022-09-24T18:09:01.526Z,17.40
2022-09-24T18:11:32.825Z,17.26
2022-09-24T18:14:02.250Z,17.34
2022-09-24T18:16:32.189Z,17.23
2022-09-24T18:19:01.459Z,17.21
2022-09-24T18:21:29.558Z,17.19
2022-09-24T18:23:59.305Z,17.17
2022-09-24T18:26:35.155Z,17.20
2022-09-24T18:29:11.415Z,17.19
2022-09-24T18:31:39.090Z,17.17
2022-09-24T18:34:08.278Z,17.13
2022-09-24T18:36:38.583Z,17.08
2022-09-24T18:39:12.408Z,17.19
2022-09-24T18:41:40.576Z,17.12
2022-09-24T18:44:09.252Z,17.15
2022-09-24T18:46:36.172Z,17.02
2022-09-24T18:49:03.506Z,16.97
2022-09-24T18:51:36.518Z,17.00
2022-09-24T18:54:12.776Z,17.03
2022-09-24T18:56:41.299Z,16.98
2022-09-24T18:59:19.198Z,16.97
2022-09-24T19:01:48.660Z,17.00
2022-09-24T19:04:16.980Z,16.98
2022-09-24T19:06:47.963Z,17.01
2022-09-24T19:09:17.394Z,17.00
2022-09-24T19:11:45.693Z,16.98
2022-09-24T19:14:14.883Z,17.00
2022-09-24T19:16:42.029Z,16.96
2022-09-24T19:19:11.171Z,16.98
2022-09-24T19:21:39.860Z,17.02
2022-09-24T19:24:07.750Z,16.94
2022-09-24T19:26:36.702Z,16.92
2022-09-24T19:29:05.223Z,16.91
2022-09-24T19:31:36.497Z,16.87
2022-09-24T19:34:06.474Z,16.85
2022-09-24T19:36:43.802Z,16.89
2022-09-24T19:39:18.357Z,16.89
2022-09-24T19:41:45.767Z,16.92
2022-09-24T19:44:13.386Z,16.90
2022-09-24T19:46:40.964Z,16.90
2022-09-24T19:49:08.832Z,16.87
2022-09-24T19:51:37.111Z,16.79
2022-09-24T19:54:08.286Z,16.84
2022-09-24T19:56:36.427Z,16.86
2022-09-24T19:59:05.190Z,16.90
2022-09-24T20:01:33.251Z,16.90
2022-09-24T20:04:05.735Z,16.90
2022-09-24T20:06:36.025Z,16.84
2022-09-24T20:09:03.370Z,16.86
2022-09-24T20:11:32.646Z,16.88
2022-09-24T20:14:01.515Z,16.86
2022-09-24T20:16:32.472Z,16.88
2022-09-24T20:19:01.099Z,16.91
2022-09-24T20:21:34.291Z,16.89
2022-09-24T20:24:03.781Z,16.88
2022-09-24T20:26:50.742Z,16.76
2022-09-24T20:29:19.603Z,16.74
2022-09-24T20:31:52.609Z,16.75
2022-09-24T20:34:26.332Z,16.76
2022-09-24T20:36:53.420Z,16.76
2022-09-24T20:39:21.205Z,16.76
2022-09-24T20:41:49.300Z,16.75
2022-09-24T20:44:16.944Z,16.76
2022-09-24T20:46:43.854Z,16.77
2022-09-24T20:49:19.539Z,16.72
2022-09-24T20:51:46.322Z,16.72
2022-09-24T20:54:13.059Z,16.75
2022-09-24T20:56:39.963Z,16.81
2022-09-24T20:59:07.538Z,16.83
2022-09-24T21:01:34.327Z,16.81
2022-09-24T21:04:02.387Z,16.80
2022-09-24T21:06:29.793Z,16.79
2022-09-24T21:08:57.040Z,16.79
2022-09-24T21:11:29.863Z,16.77
2022-09-24T21:14:02.725Z,16.74
2022-09-24T21:16:33.456Z,16.84
2022-09-24T21:19:04.108Z,16.75
2022-09-24T21:21:35.140Z,16.68
2022-09-24T21:24:02.552Z,16.65
2022-09-24T21:26:32.948Z,16.63
2022-09-24T21:29:10.703Z,16.62
2022-09-24T21:31:39.375Z,16.58
2022-09-24T21:34:07.619Z,16.31
2022-09-24T21:36:44.513Z,16.52
2022-09-24T21:39:23.411Z,16.56
2022-09-24T21:41:52.907Z,16.58
2022-09-24T21:44:20.026Z,16.65
2022-09-24T21:46:48.071Z,16.56
2022-09-24T21:49:16.954Z,16.60
2022-09-24T21:51:44.221Z,16.57
2022-09-24T21:54:17.134Z,16.63
2022-09-24T21:56:44.581Z,16.65
2022-09-24T21:59:29.830Z,16.64
2022-09-24T22:01:56.816Z,16.61
2022-09-24T22:04:23.631Z,16.59
2022-09-24T22:06:51.083Z,16.59
2022-09-24T22:09:18.869Z,16.60
2022-09-24T22:11:46.152Z,16.57
2022-09-24T22:14:13.994Z,16.58
2022-09-24T22:16:40.840Z,16.57
2022-09-24T22:19:09.208Z,16.66
2022-09-24T22:21:36.647Z,16.66
2022-09-24T22:24:04.455Z,16.65
2022-09-24T22:26:31.255Z,16.63
2022-09-24T22:28:59.084Z,16.38
2022-09-24T22:31:26.371Z,16.49
2022-09-24T22:34:12.096Z,16.64
2022-09-24T22:36:39.044Z,16.64
2022-09-24T22:39:07.498Z,16.61
2022-09-24T22:41:39.730Z,16.61
2022-09-24T22:44:07.513Z,16.62
2022-09-24T22:46:36.228Z,16.68
2022-09-24T22:49:05.431Z,16.57
2022-09-24T22:51:33.389Z,16.58
2022-09-24T22:54:00.225Z,16.61
2022-09-24T22:56:27.830Z,16.64
2022-09-24T22:58:58.563Z,16.55
2022-09-24T23:01:28.829Z,16.54
2022-09-24T23:03:57.071Z,16.57
2022-09-24T23:06:25.135Z,16.48
2022-09-24T23:08:53.870Z,16.44
2022-09-24T23:11:27.520Z,16.40
2022-09-24T23:14:05.246Z,16.32
2022-09-24T23:16:35.118Z,16.29
2022-09-24T23:19:07.024Z,16.20
2022-09-24T23:21:34.913Z,16.12
2022-09-24T23:24:06.096Z,15.98
2022-09-24T23:26:33.285Z,15.88
2022-09-24T23:29:01.207Z,15.83
2022-09-24T23:31:34.257Z,15.85
2022-09-24T23:34:02.130Z,15.83
2022-09-24T23:36:31.971Z,15.78
2022-09-24T23:39:00.552Z,15.74
2022-09-24T23:41:29.050Z,15.75
2022-09-24T23:43:55.941Z,15.74
2022-09-24T23:46:22.774Z,15.74
2022-09-24T23:48:49.704Z,15.72
2022-09-24T23:51:16.493Z,15.72
2022-09-24T23:53:43.313Z,15.68
2022-09-24T23:56:11.182Z,15.72
2022-09-24T23:58:38.023Z,15.73
